createdAt,value
2022-11-12T00:00:29.601Z,67.08
2022-11-12T00:03:16.642Z,67.48
2022-11-12T00:06:04.665Z,67.15
2022-11-12T00:08:51.469Z,67.58
2022-11-12T00:11:38.343Z,68.18
2022-11-12T00:14:25.124Z,68.19
2022-11-12T00:17:11.989Z,68.48
2022-11-12T00:19:58.987Z,67.66
2022-11-12T00:22:47.088Z,68.17
2022-11-12T00:25:33.784Z,68.47
2022-11-12T00:33:57.795Z,68.66
2022-11-12T00:36:44.683Z,68.30
2022-11-12T00:39:32.874Z,68.78
2022-11-12T00:42:19.811Z,68.37
2022-11-12T00:45:07.935Z,68.66
2022-11-12T00:47:57.528Z,68.62
2022-11-12T00:50:44.186Z,68.02
2022-11-12T00:53:31.283Z,68.22
2022-11-12T00:56:19.478Z,68.11
2022-11-12T00:59:06.334Z,68.46
2022-11-12T01:01:53.001Z,68.53
2022-11-12T01:04:39.983Z,67.93
2022-11-12T01:07:26.799Z,68.51
2022-11-12T01:10:13.826Z,68.75
2022-11-12T01:13:02.158Z,68.89
2022-11-12T01:15:48.703Z,68.66
2022-11-12T01:18:35.610Z,68.75
2022-11-12T01:21:23.424Z,68.57
2022-11-12T01:24:10.879Z,68.72
2022-11-12T01:26:57.631Z,68.56
2022-11-12T01:29:45.745Z,68.33
2022-11-12T01:32:36.889Z,68.35
2022-11-12T01:35:23.584Z,68.26
2022-11-12T01:38:10.552Z,67.80
2022-11-12T01:40:57.466Z,67.99
2022-11-12T01:43:44.061Z,67.74
2022-11-12T01:46:32.402Z,67.97
2022-11-12T01:49:25.319Z,67.73
2022-11-12T01:52:18.586Z,67.40
2022-11-12T01:55:10.520Z,67.50
2022-11-12T01:58:14.646Z,67.59
2022-11-12T02:01:03.448Z,67.57
2022-11-12T02:03:52.016Z,67.59
2022-11-12T02:06:40.878Z,67.67
2022-11-12T02:09:27.670Z,68.01
2022-11-12T02:12:34.307Z,68.45
2022-11-12T02:15:20.453Z,68.42
2022-11-12T02:18:07.426Z,68.52
2022-11-12T02:20:59.053Z,68.22
2022-11-12T02:23:46.896Z,68.39
2022-11-12T02:26:38.028Z,68.13
2022-11-12T02:29:24.729Z,68.00
2022-11-12T02:32:11.643Z,67.86
2022-11-12T02:34:58.632Z,67.79
2022-11-12T02:37:45.206Z,67.41
2022-11-12T02:40:33.243Z,67.69
2022-11-12T02:43:21.499Z,67.88
2022-11-12T02:46:08.868Z,67.71
2022-11-12T02:48:55.575Z,67.68
2022-11-12T02:51:42.442Z,67.94
2022-11-12T02:54:29.210Z,68.43
2022-11-12T02:57:17.179Z,67.75
2022-11-12T03:00:04.902Z,67.76
2022-11-12T03:02:58.985Z,67.94
2022-11-12T03:05:47.137Z,67.50
2022-11-12T03:08:33.859Z,67.57
2022-11-12T03:11:20.515Z,67.77
2022-11-12T03:14:08.501Z,67.49
2022-11-12T03:16:55.059Z,67.44
2022-11-12T03:19:41.840Z,67.60
2022-11-12T03:22:28.508Z,67.01
2022-11-12T03:25:15.245Z,66.78
2022-11-12T03:28:04.963Z,67.15
2022-11-12T03:30:53.034Z,67.50
2022-11-12T03:33:40.417Z,67.48
2022-11-12T03:36:27.096Z,67.47
2022-11-12T03:39:13.922Z,67.22
2022-11-12T03:42:00.529Z,67.14
2022-11-12T03:44:47.326Z,67.25
2022-11-12T03:47:35.765Z,67.41
2022-11-12T03:50:25.619Z,67.20
2022-11-12T03:53:12.412Z,66.95
2022-11-12T03:55:58.944Z,67.07
2022-11-12T03:58:45.679Z,67.12
2022-11-12T04:01:33.205Z,67.29
2022-11-12T04:04:21.003Z,67.51
2022-11-12T04:07:25.201Z,67.33
2022-11-12T04:10:11.704Z,67.38
2022-11-12T04:13:16.056Z,66.94
2022-11-12T04:16:23.025Z,66.93
2022-11-12T04:19:31.874Z,66.80
2022-11-12T04:22:19.893Z,66.91
2022-11-12T04:25:25.007Z,66.94
2022-11-12T04:28:11.823Z,67.04
2022-11-12T04:30:57.272Z,67.58
2022-11-12T04:33:43.911Z,67.13
2022-11-12T04:36:30.293Z,67.22
2022-11-12T04:39:18.422Z,67.11
2022-11-12T04:42:22.979Z,67.24
2022-11-12T04:45:14.262Z,67.01
2022-11-12T04:48:00.943Z,66.98
2022-11-12T04:50:50.865Z,66.93
2022-11-12T04:53:37.689Z,66.61
2022-11-12T04:56:25.642Z,66.45
2022-11-12T04:59:12.091Z,66.53
2022-11-12T05:01:58.679Z,67.03
2022-11-12T05:04:45.546Z,66.63
2022-11-12T05:07:33.598Z,66.68
2022-11-12T05:10:20.500Z,66.41
2022-11-12T05:13:08.525Z,66.55
2022-11-12T05:15:54.887Z,66.72
2022-11-12T05:18:41.962Z,67.21
2022-11-12T05:21:46.143Z,67.03
2022-11-12T05:24:41.947Z,66.84
2022-11-12T05:27:29.292Z,66.62
2022-11-12T05:30:17.632Z,66.30
2022-11-12T05:33:04.442Z,66.29
2022-11-12T05:35:51.491Z,66.30
2022-11-12T05:38:39.168Z,66.25
2022-11-12T05:41:25.927Z,66.25
2022-11-12T05:44:13.091Z,66.76
2022-11-12T05:47:01.305Z,66.53
2022-11-12T05:49:47.922Z,66.42
2022-11-12T05:52:34.453Z,66.59
2022-11-12T05:55:21.447Z,66.65
2022-11-12T05:58:08.442Z,66.41
2022-11-12T06:00:55.223Z,66.80
2022-11-12T06:03:43.395Z,66.75
2022-11-12T06:06:30.033Z,66.21
2022-11-12T06:09:16.800Z,66.33
2022-11-12T06:12:06.202Z,65.91
2022-11-12T06:14:52.785Z,66.34
2022-11-12T06:17:39.539Z,66.51
2022-11-12T06:20:27.574Z,66.49
2022-11-12T06:23:14.490Z,65.92
2022-11-12T06:26:01.029Z,66.01
2022-11-12T06:28:49.378Z,66.67
2022-11-12T06:31:35.889Z,67.39
2022-11-12T06:34:22.703Z,65.96
2022-11-12T06:37:10.753Z,65.64
2022-11-12T06:39:57.432Z,66.08
2022-11-12T06:42:44.184Z,69.41
2022-11-12T06:45:30.817Z,66.02
2022-11-12T06:48:17.757Z,64.82
2022-11-12T06:51:13.349Z,64.62
2022-11-12T06:54:01.333Z,64.42
2022-11-12T06:56:48.163Z,64.48
2022-11-12T06:59:34.717Z,65.01
2022-11-12T07:02:21.602Z,64.80
2022-11-12T07:05:08.919Z,65.13
2022-11-12T07:07:56.162Z,65.24
2022-11-12T07:10:44.071Z,65.85
2022-11-12T07:13:32.600Z,65.74
2022-11-12T07:16:19.634Z,65.95
2022-11-12T07:19:06.422Z,66.01
2022-11-12T07:21:53.124Z,66.26
2022-11-12T07:24:40.032Z,66.25
2022-11-12T07:27:30.853Z,66.00
2022-11-12T07:30:17.789Z,66.12
2022-11-12T07:33:04.458Z,66.00
2022-11-12T07:35:57.970Z,65.59
2022-11-12T07:38:45.429Z,65.31
2022-11-12T07:41:31.945Z,64.71
2022-11-12T07:44:19.955Z,65.28
2022-11-12T07:47:06.674Z,64.96
2022-11-12T07:49:53.411Z,64.48
2022-11-12T07:52:40.473Z,64.73
2022-11-12T07:55:27.511Z,64.48
2022-11-12T07:58:14.422Z,64.93
2022-11-12T08:01:10.100Z,65.07
2022-11-12T08:03:56.611Z,64.87
2022-11-12T08:06:43.598Z,64.66
2022-11-12T08:09:30.460Z,64.73
2022-11-12T08:12:17.306Z,65.41
2022-11-12T08:15:04.167Z,65.64
2022-11-12T08:17:54.130Z,64.59
2022-11-12T08:20:41.161Z,64.25
2022-11-12T08:23:28.022Z,64.50
2022-11-12T08:26:17.704Z,64.17
2022-11-12T08:29:08.704Z,64.36
2022-11-12T08:31:55.863Z,64.50
2022-11-12T08:34:43.835Z,64.52
2022-11-12T08:37:30.791Z,64.34
2022-11-12T08:40:17.647Z,64.45
2022-11-12T08:43:07.757Z,64.40
2022-11-12T08:45:55.079Z,64.54
2022-11-12T08:48:42.084Z,64.47
2022-11-12T08:51:29.981Z,64.48
2022-11-12T08:54:16.561Z,64.86
2022-11-12T08:57:05.823Z,64.20
2022-11-12T08:59:52.412Z,63.96
2022-11-12T09:02:39.014Z,64.06
2022-11-12T09:05:25.861Z,63.65
2022-11-12T09:08:17.282Z,63.51
2022-11-12T09:11:07.023Z,64.01
2022-11-12T09:13:54.870Z,64.59
2022-11-12T09:16:41.458Z,64.26
2022-11-12T09:19:28.298Z,64.65
2022-11-12T09:22:14.811Z,64.29
2022-11-12T09:25:03.016Z,63.35
2022-11-12T09:27:49.710Z,62.71
2022-11-12T09:30:37.599Z,62.95
2022-11-12T09:33:27.201Z,63.06
2022-11-12T09:36:13.925Z,62.10
2022-11-12T09:39:00.766Z,61.98
2022-11-12T09:41:48.806Z,61.05
2022-11-12T09:44:41.262Z,61.50
2022-11-12T09:47:33.771Z,61.67
2022-11-12T09:50:25.701Z,61.63
2022-11-12T09:53:20.292Z,61.23
2022-11-12T09:56:11.569Z,61.60
2022-11-12T09:58:59.973Z,61.73
2022-11-12T10:02:01.507Z,60.60
2022-11-12T10:04:59.956Z,61.72
2022-11-12T10:08:06.580Z,60.65
2022-11-12T10:11:14.633Z,61.05
2022-11-12T10:14:14.278Z,60.00
2022-11-12T10:17:09.721Z,59.40
2022-11-12T10:20:09.941Z,59.58
2022-11-12T10:23:20.097Z,59.01
2022-11-12T10:26:14.626Z,59.06
2022-11-12T10:29:15.430Z,59.01
2022-11-12T10:32:03.385Z,59.00
2022-11-12T10:34:49.752Z,58.99
2022-11-12T10:37:46.803Z,59.15
2022-11-12T10:40:37.262Z,58.13
2022-11-12T10:43:25.861Z,57.39
2022-11-12T10:46:21.331Z,57.25
2022-11-12T10:49:23.232Z,57.33
2022-11-12T10:52:23.317Z,56.22
2022-11-12T10:55:18.817Z,56.13
2022-11-12T10:58:19.572Z,55.80
2022-11-12T11:01:17.547Z,55.89
2022-11-12T11:04:05.201Z,55.71
2022-11-12T11:07:01.696Z,55.86
2022-11-12T11:09:54.717Z,55.19
2022-11-12T11:12:41.192Z,55.70
2022-11-12T11:15:27.984Z,55.70
2022-11-12T11:18:16.314Z,56.08
2022-11-12T11:21:23.667Z,55.92
2022-11-12T11:24:36.670Z,56.11
2022-11-12T11:27:33.740Z,56.32
2022-11-12T11:30:22.399Z,56.77
2022-11-12T11:33:46.232Z,56.77
2022-11-12T11:36:47.299Z,57.51
2022-11-12T11:39:44.764Z,57.31
2022-11-12T11:43:09.148Z,58.13
2022-11-12T11:46:08.265Z,60.11
2022-11-12T11:49:23.003Z,60.70
2022-11-12T11:52:42.717Z,62.15
2022-11-12T11:55:45.009Z,62.54
2022-11-12T11:58:58.543Z,62.05
2022-11-12T12:02:23.568Z,62.06
2022-11-12T12:05:30.397Z,61.99
2022-11-12T12:08:26.589Z,61.22
2022-11-12T12:11:19.445Z,61.50
2022-11-12T12:14:25.343Z,60.99
2022-11-12T12:17:33.271Z,60.70
2022-11-12T12:20:30.204Z,61.19
2022-11-12T12:23:27.537Z,61.69
2022-11-12T12:26:19.325Z,62.03
2022-11-12T12:29:12.913Z,62.55
2022-11-12T12:32:11.809Z,62.79
2022-11-12T12:35:04.841Z,62.40
2022-11-12T12:38:07.554Z,62.16
2022-11-12T12:41:01.837Z,62.26
2022-11-12T12:43:53.743Z,62.41
2022-11-12T12:46:46.154Z,62.46
2022-11-12T12:49:37.845Z,62.05
2022-11-12T12:52:24.573Z,61.82
2022-11-12T12:55:41.276Z,61.26
2022-11-12T12:58:31.333Z,62.33
2022-11-12T13:01:31.932Z,61.93
2022-11-12T13:04:38.705Z,61.78
2022-11-12T13:07:42.918Z,61.77
2022-11-12T13:10:56.111Z,61.63
2022-11-12T13:13:42.711Z,61.77
2022-11-12T13:16:57.710Z,61.87
2022-11-12T13:19:48.582Z,62.18
2022-11-12T13:22:51.396Z,61.78
2022-11-12T13:25:39.294Z,61.86
2022-11-12T13:28:27.881Z,61.16
2022-11-12T13:31:28.624Z,61.34
2022-11-12T13:34:26.302Z,61.58
2022-11-12T13:37:22.135Z,61.54
2022-11-12T13:40:15.172Z,61.66
2022-11-12T13:43:12.719Z,61.41
2022-11-12T13:46:26.089Z,61.58
2022-11-12T13:49:16.076Z,61.17
2022-11-12T13:52:02.709Z,61.42
2022-11-12T13:55:03.274Z,60.72
2022-11-12T13:57:54.008Z,61.35
2022-11-12T14:00:41.226Z,60.56
2022-11-12T14:03:33.654Z,60.14
2022-11-12T14:06:29.593Z,60.63
2022-11-12T14:09:59.246Z,61.28
2022-11-12T14:13:05.191Z,61.72
2022-11-12T14:16:11.704Z,61.47
2022-11-12T14:19:53.811Z,61.59
2022-11-12T14:22:44.537Z,62.27
2022-11-12T14:25:32.196Z,61.70
2022-11-12T14:28:29.500Z,61.61
2022-11-12T14:31:24.188Z,61.34
2022-11-12T14:34:21.593Z,61.43
2022-11-12T14:37:33.426Z,61.38
2022-11-12T14:40:23.272Z,61.64
2022-11-12T14:43:34.620Z,61.80
2022-11-12T14:46:28.858Z,62.25
2022-11-12T14:49:22.490Z,62.21
2022-11-12T14:52:16.942Z,62.25
2022-11-12T14:55:11.576Z,62.61
2022-11-12T14:58:00.400Z,62.77
2022-11-12T15:00:48.784Z,63.16
2022-11-12T15:03:35.738Z,63.52
2022-11-12T15:06:31.067Z,63.50
2022-11-12T15:09:21.794Z,63.80
2022-11-12T15:12:14.225Z,63.56
2022-11-12T15:15:10.896Z,63.52
2022-11-12T15:18:03.196Z,63.68
2022-11-12T15:21:09.290Z,63.67
2022-11-12T15:24:05.951Z,63.72
2022-11-12T15:26:53.061Z,63.98
2022-11-12T15:29:39.942Z,63.85
2022-11-12T15:32:35.639Z,64.11
2022-11-12T15:35:36.846Z,64.32
2022-11-12T15:38:31.559Z,63.81
2022-11-12T15:41:25.981Z,64.44
2022-11-12T15:44:13.990Z,64.48
2022-11-12T15:47:01.883Z,64.89
2022-11-12T15:49:51.715Z,64.59
2022-11-12T15:52:38.570Z,64.13
2022-11-12T15:55:25.637Z,64.09
2022-11-12T15:58:18.545Z,64.06
2022-11-12T16:01:06.476Z,64.55
2022-11-12T16:03:53.382Z,64.28
2022-11-12T16:06:41.403Z,64.69
2022-11-12T16:09:28.289Z,65.08
2022-11-12T16:12:16.100Z,64.67
2022-11-12T16:15:03.069Z,64.49
2022-11-12T16:17:50.094Z,64.95
2022-11-12T16:20:37.341Z,64.98
2022-11-12T16:23:25.553Z,64.52
2022-11-12T16:26:17.162Z,64.88
2022-11-12T16:29:04.358Z,64.60
2022-11-12T16:31:51.222Z,65.53
2022-11-12T16:34:38.054Z,65.72
2022-11-12T16:37:24.901Z,65.94
2022-11-12T16:40:16.853Z,66.36
2022-11-12T16:43:03.581Z,66.57
2022-11-12T16:45:50.477Z,65.73
2022-11-12T16:48:38.094Z,66.07
2022-11-12T16:51:25.282Z,65.19
2022-11-12T16:54:11.952Z,65.10
2022-11-12T16:57:00.106Z,65.43
2022-11-12T16:59:47.422Z,65.10
2022-11-12T17:02:38.026Z,64.81
2022-11-12T17:05:28.846Z,64.19
2022-11-12T17:08:15.854Z,64.28
2022-11-12T17:11:09.362Z,64.95
2022-11-12T17:13:57.701Z,64.58
2022-11-12T17:16:44.909Z,64.46
2022-11-12T17:19:31.425Z,65.25
2022-11-12T17:22:20.003Z,64.31
2022-11-12T17:25:09.176Z,64.94
2022-11-12T17:27:56.198Z,64.85
2022-11-12T17:30:44.466Z,64.14
2022-11-12T17:33:31.115Z,64.64
2022-11-12T17:36:20.761Z,64.67
2022-11-12T17:39:07.341Z,64.39
2022-11-12T17:41:53.958Z,64.10
2022-11-12T17:44:41.194Z,64.26
2022-11-12T17:47:29.205Z,64.43
2022-11-12T17:50:16.290Z,64.44
2022-11-12T17:53:02.857Z,64.43
2022-11-12T17:55:58.843Z,64.15
2022-11-12T17:58:47.202Z,64.03
2022-11-12T18:01:35.043Z,63.94
2022-11-12T18:04:30.626Z,64.17
2022-11-12T18:07:17.730Z,64.43
2022-11-12T18:10:05.111Z,64.67
2022-11-12T18:12:53.064Z,64.57
2022-11-12T18:15:39.640Z,64.71
2022-11-12T18:18:26.207Z,64.28
2022-11-12T18:21:14.673Z,64.49
2022-11-12T18:24:01.850Z,64.81
2022-11-12T18:26:48.819Z,63.75
2022-11-12T18:29:36.480Z,63.92
2022-11-12T18:32:23.486Z,64.21
2022-11-12T18:35:30.348Z,64.32
2022-11-12T18:38:18.783Z,64.41
2022-11-12T18:41:32.921Z,65.41
2022-11-12T18:44:24.767Z,65.55
2022-11-12T18:47:13.007Z,65.01
2022-11-12T18:50:02.964Z,64.87
2022-11-12T18:52:53.862Z,64.64
2022-11-12T18:55:44.909Z,64.17
2022-11-12T18:58:35.387Z,64.19
2022-11-12T19:01:24.229Z,64.18
2022-11-12T19:04:17.727Z,64.10
2022-11-12T19:07:04.557Z,64.18
2022-11-12T19:09:51.572Z,63.92
2022-11-12T19:12:39.403Z,63.87
2022-11-12T19:15:27.176Z,64.22
2022-11-12T19:18:14.704Z,64.06
2022-11-12T19:21:04.136Z,64.06
2022-11-12T19:23:54.495Z,64.22
2022-11-12T19:26:41.721Z,64.38
2022-11-12T19:29:30.755Z,64.25
2022-11-12T19:32:17.510Z,63.90
2022-11-12T19:35:04.040Z,64.43
2022-11-12T19:37:50.698Z,64.58
2022-11-12T19:40:37.348Z,63.83
2022-11-12T19:43:24.994Z,64.03
2022-11-12T19:46:13.402Z,64.23
2022-11-12T19:49:00.355Z,64.73
2022-11-12T19:51:47.578Z,65.25
2022-11-12T19:54:34.537Z,65.00
2022-11-12T19:57:21.517Z,64.94
2022-11-12T20:00:10.834Z,65.37
2022-11-12T20:05:46.959Z,65.70
2022-11-12T20:08:34.404Z,65.66
2022-11-12T20:11:21.306Z,65.62
2022-11-12T20:14:07.963Z,65.79
2022-11-12T20:16:54.911Z,65.85
2022-11-12T20:19:42.987Z,65.25
2022-11-12T20:22:32.446Z,64.89
2022-11-12T20:25:19.221Z,64.82
2022-11-12T20:28:14.800Z,65.54
2022-11-12T20:31:03.602Z,66.10
2022-11-12T20:33:51.413Z,65.72
2022-11-12T20:36:39.422Z,65.27
2022-11-12T20:39:25.940Z,64.84
2022-11-12T20:42:12.547Z,64.85
2022-11-12T20:44:59.343Z,64.71
2022-11-12T20:47:46.051Z,64.34
2022-11-12T20:50:32.750Z,64.32
2022-11-12T20:53:20.864Z,64.45
2022-11-12T20:56:10.460Z,64.59
2022-11-12T20:58:57.919Z,64.45
2022-11-12T21:01:44.719Z,64.11
2022-11-12T21:04:31.745Z,63.83
2022-11-12T21:07:18.356Z,63.87
2022-11-12T21:10:09.701Z,63.81
2022-11-12T21:12:56.300Z,63.96
2022-11-12T21:15:46.478Z,64.05
2022-11-12T21:18:35.566Z,63.90
2022-11-12T21:21:22.430Z,63.88
2022-11-12T21:24:13.407Z,64.08
2022-11-12T21:27:01.382Z,63.95
2022-11-12T21:29:48.022Z,63.22
2022-11-12T21:32:34.725Z,63.03
2022-11-12T21:35:21.262Z,62.76
2022-11-12T21:38:08.030Z,63.25
2022-11-12T21:41:03.563Z,63.41
2022-11-12T21:43:51.905Z,63.11
2022-11-12T21:46:40.381Z,63.70
2022-11-12T21:49:27.369Z,64.24
2022-11-12T21:52:14.065Z,63.60
2022-11-12T21:55:00.954Z,63.98
2022-11-12T21:57:47.524Z,63.77
2022-11-12T22:00:43.069Z,64.36
2022-11-12T22:03:31.534Z,64.16
2022-11-12T22:06:19.552Z,64.12
2022-11-12T22:09:06.833Z,64.75
2022-11-12T22:11:54.064Z,64.62
2022-11-12T22:14:40.677Z,64.85
2022-11-12T22:17:28.605Z,64.49
2022-11-12T22:20:15.561Z,64.16
2022-11-12T22:23:02.094Z,64.36
2022-11-12T22:25:50.559Z,64.07
2022-11-12T22:28:37.341Z,64.29
2022-11-12T22:31:26.935Z,64.87
2022-11-12T22:34:15.015Z,64.71
2022-11-12T22:37:01.702Z,64.76
2022-11-12T22:39:48.667Z,64.27
2022-11-12T22:43:10.369Z,64.32
2022-11-12T22:46:06.923Z,64.15
2022-11-12T22:48:53.988Z,64.41
2022-11-12T22:51:42.209Z,64.31
2022-11-12T22:54:29.131Z,63.95
2022-11-12T22:57:15.858Z,63.91
2022-11-12T23:00:09.510Z,63.91
2022-11-12T23:03:01.741Z,63.97
2022-11-12T23:05:51.773Z,63.57
2022-11-12T23:08:39.898Z,63.49
2022-11-12T23:11:27.268Z,63.44
2022-11-12T23:14:13.801Z,63.61
2022-11-12T23:17:00.430Z,63.57
2022-11-12T23:19:47.012Z,63.44
2022-11-12T23:22:33.942Z,63.94
2022-11-12T23:25:21.923Z,63.64
2022-11-12T23:28:08.972Z,63.96
2022-11-12T23:30:55.503Z,63.74
2022-11-12T23:33:46.371Z,64.13
2022-11-12T23:36:33.250Z,63.76
2022-11-12T23:39:19.866Z,63.86
2022-11-12T23:42:07.958Z,64.93
2022-11-12T23:44:54.514Z,64.36
2022-11-12T23:47:41.409Z,64.41
2022-11-12T23:50:27.980Z,64.08
2022-11-12T23:53:14.931Z,64.31
2022-11-12T23:56:02.079Z,64.07
2022-11-12T23:58:50.211Z,63.87
